Time;durP1;ratioP1;P1;durP2;ratioP2;P2;SDS_P1;SDS_P2;PMS_P1;PMS_P2;Temp;Humidity;BMP_temperature;BMP_pressure;BME280_temperature;BME280_humidity;BME280_pressure;Samples;Min_cycle;Max_cycle;Signal;HPM_P1;HPM_P2
2023/03/19 00:01:10;;;;;;;5.10;3.73;;;12.30;99.90;;;;;;5022611;28;20269;-68
2023/03/19 00:03:36;;;;;;;3.60;3.23;;;12.30;99.90;;;;;;5043892;28;20235;-68
2023/03/19 00:06:02;;;;;;;4.20;3.70;;;12.40;99.90;;;;;;5029217;28;20223;-68
2023/03/19 00:08:27;;;;;;;3.87;3.07;;;12.30;99.90;;;;;;5023540;28;20219;-68
2023/03/19 00:10:53;;;;;;;4.50;3.47;;;12.30;99.90;;;;;;5028134;28;20227;-68
2023/03/19 00:13:19;;;;;;;5.90;5.23;;;12.30;99.90;;;;;;5018886;28;20305;-69
2023/03/19 00:15:46;;;;;;;13.67;11.83;;;12.30;99.90;;;;;;5042140;28;20220;-69
2023/03/19 00:18:12;;;;;;;8.23;7.40;;;12.30;99.90;;;;;;4997952;28;20523;-71
2023/03/19 00:20:38;;;;;;;4.90;4.47;;;12.30;99.90;;;;;;5027971;28;20987;-68
2023/03/19 00:23:03;;;;;;;5.03;3.93;;;12.30;99.90;;;;;;5031605;28;20469;-68
2023/03/19 00:25:29;;;;;;;4.90;4.13;;;12.30;99.90;;;;;;5018507;28;20282;-70
2023/03/19 00:27:55;;;;;;;5.17;3.60;;;12.30;99.90;;;;;;5038698;28;20233;-70
2023/03/19 00:30:21;;;;;;;4.33;3.87;;;12.30;99.90;;;;;;5032853;28;20210;-70
2023/03/19 00:32:47;;;;;;;4.30;3.90;;;12.30;99.90;;;;;;5026412;28;20220;-70
2023/03/19 00:35:13;;;;;;;7.13;4.33;;;12.30;99.90;;;;;;5042519;28;20484;-71
2023/03/19 00:37:40;;;;;;;3.87;3.50;;;12.30;99.90;;;;;;5019072;28;20229;-70
2023/03/19 00:40:07;;;;;;;5.33;3.43;;;12.30;99.90;;;;;;5020040;28;20465;-67
2023/03/19 00:42:33;;;;;;;4.03;3.23;;;12.20;99.90;;;;;;5035646;28;20470;-68
2023/03/19 00:44:59;;;;;;;6.53;4.03;;;12.10;99.90;;;;;;5035691;28;21119;-68
2023/03/19 00:47:25;;;;;;;6.03;3.23;;;12.10;99.90;;;;;;5004716;28;20461;-67
2023/03/19 00:49:51;;;;;;;5.63;3.30;;;12.10;99.90;;;;;;5014502;28;20768;-68
2023/03/19 00:52:17;;;;;;;7.00;4.07;;;12.20;99.90;;;;;;5002997;28;20490;-68
2023/03/19 00:54:42;;;;;;;4.30;3.90;;;12.20;99.90;;;;;;5002814;28;20799;-67
2023/03/19 00:57:08;;;;;;;12.30;4.00;;;12.20;99.90;;;;;;5025738;28;20211;-69
2023/03/19 00:59:34;;;;;;;3.20;3.00;;;12.20;99.90;;;;;;5008549;28;20698;-68
2023/03/19 01:02:01;;;;;;;4.53;3.93;;;12.20;99.90;;;;;;5000715;28;20302;-68
2023/03/19 01:04:27;;;;;;;4.57;3.87;;;12.20;99.90;;;;;;5000935;28;20493;-70
2023/03/19 01:06:53;;;;;;;5.70;3.70;;;12.20;99.90;;;;;;5034618;28;21028;-67
2023/03/19 01:09:19;;;;;;;4.33;3.83;;;12.20;99.90;;;;;;5021660;28;20561;-69
2023/03/19 01:11:44;;;;;;;6.27;4.20;;;12.20;99.90;;;;;;5009096;28;20579;-68
2023/03/19 01:14:10;;;;;;;5.93;4.60;;;12.20;99.90;;;;;;5005402;28;20220;-68
2023/03/19 01:16:36;;;;;;;6.00;4.50;;;12.20;99.90;;;;;;5021163;28;20224;-69
2023/03/19 01:19:02;;;;;;;7.20;5.20;;;12.10;99.90;;;;;;5005077;28;20462;-67
2023/03/19 01:21:29;;;;;;;6.10;4.50;;;12.10;99.90;;;;;;5011461;28;20548;-68
2023/03/19 01:23:56;;;;;;;5.43;4.93;;;12.10;99.90;;;;;;5017840;28;20242;-67
2023/03/19 01:26:23;;;;;;;5.77;5.23;;;12.10;99.90;;;;;;5006233;28;20461;-68
2023/03/19 01:28:53;;;;;;;6.17;4.70;;;12.10;99.90;;;;;;5023792;28;20817;-68
2023/03/19 01:31:20;;;;;;;9.13;6.00;;;12.10;99.90;;;;;;5021552;28;20484;-68
2023/03/19 01:34:12;;;;;;;6.07;4.63;;;12.10;99.90;;;;;;5011951;28;21017;-69
2023/03/19 01:36:47;;;;;;;8.43;4.67;;;12.10;99.90;;;;;;4992911;28;20457;-70
2023/03/19 01:39:16;;;;;;;5.00;4.10;;;12.10;99.90;;;;;;4995707;28;20470;-69
2023/03/19 01:41:41;;;;;;;4.60;3.77;;;12.00;99.90;;;;;;5026035;28;20465;-67
2023/03/19 01:44:34;;;;;;;6.87;3.30;;;12.00;99.90;;;;;;5001906;28;20276;-68
2023/03/19 01:47:31;;;;;;;5.20;3.47;;;12.00;99.90;;;;;;5005737;28;20489;-68
2023/03/19 01:50:56;;;;;;;6.07;4.00;;;12.00;99.90;;;;;;5029153;28;20981;-68
2023/03/19 01:53:44;;;;;;;4.00;3.40;;;12.00;99.90;;;;;;5032230;28;20463;-67
2023/03/19 01:56:19;;;;;;;2.90;2.70;;;12.00;99.90;;;;;;4987763;28;20505;-68
2023/03/19 01:59:17;;;;;;;5.13;3.13;;;12.00;99.90;;;;;;5009724;28;20521;-68
2023/03/19 02:02:09;;;;;;;3.83;2.87;;;12.00;99.90;;;;;;5021831;28;20501;-68
2023/03/19 02:04:37;;;;;;;3.83;2.70;;;11.90;99.90;;;;;;5019970;28;20485;-71
2023/03/19 02:07:04;;;;;;;3.10;2.60;;;11.90;99.90;;;;;;5024154;28;20461;-67
2023/03/19 02:09:31;;;;;;;5.47;2.70;;;11.90;99.90;;;;;;4997096;28;20458;-68
2023/03/19 02:11:58;;;;;;;4.60;3.03;;;11.90;99.90;;;;;;5010565;28;20465;-67
2023/03/19 02:14:23;;;;;;;3.40;3.10;;;11.90;99.90;;;;;;5020562;28;20474;-68
2023/03/19 02:16:50;;;;;;;3.60;2.60;;;11.90;99.90;;;;;;5024306;28;20462;-67
2023/03/19 02:19:25;;;;;;;4.17;3.40;;;11.90;99.90;;;;;;5004861;28;20253;-68
2023/03/19 02:21:52;;;;;;;5.10;4.30;;;11.90;99.90;;;;;;5036588;28;20496;-69
2023/03/19 02:25:01;;;;;;;7.40;5.00;;;11.90;99.90;;;;;;4993835;28;20466;-68
2023/03/19 02:27:28;;;;;;;5.63;4.97;;;11.80;99.90;;;;;;4908264;29;20470;-67
2023/03/19 02:29:53;;;;;;;11.73;4.90;;;11.80;99.90;;;;;;4992787;28;20510;-69
2023/03/19 02:32:20;;;;;;;9.80;4.57;;;11.80;99.90;;;;;;5021593;28;20293;-71
2023/03/19 02:34:46;;;;;;;5.60;3.97;;;11.70;99.90;;;;;;5007889;28;20457;-70
2023/03/19 02:37:12;;;;;;;4.53;3.77;;;11.70;99.90;;;;;;5020544;28;20215;-71
2023/03/19 02:39:49;;;;;;;8.40;4.20;;;11.70;99.90;;;;;;5020752;28;20754;-70
2023/03/19 02:42:17;;;;;;;4.60;3.80;;;11.80;99.90;;;;;;5013243;28;20226;-71
2023/03/19 02:44:43;;;;;;;5.13;3.80;;;11.80;99.90;;;;;;5002743;28;20490;-71
2023/03/19 02:47:09;;;;;;;3.70;3.03;;;11.80;99.90;;;;;;5002101;28;20806;-72
2023/03/19 02:49:35;;;;;;;3.30;3.00;;;11.80;99.90;;;;;;5023642;28;20456;-71
2023/03/19 02:52:01;;;;;;;4.67;3.37;;;11.70;99.90;;;;;;5017683;28;20469;-70
2023/03/19 02:54:26;;;;;;;4.03;3.47;;;11.70;99.90;;;;;;5004530;28;20744;-71
2023/03/19 02:56:52;;;;;;;3.70;3.30;;;11.80;99.90;;;;;;5016878;28;20249;-73
2023/03/19 02:59:18;;;;;;;5.03;3.60;;;11.80;99.90;;;;;;5009869;28;20238;-71
2023/03/19 03:01:44;;;;;;;3.80;3.37;;;11.80;99.90;;;;;;5013708;28;20228;-72
2023/03/19 03:04:10;;;;;;;5.83;3.67;;;11.70;99.90;;;;;;5020999;28;20475;-71
2023/03/19 03:06:36;;;;;;;4.60;3.50;;;11.80;99.90;;;;;;5026596;28;20228;-72
2023/03/19 03:09:02;;;;;;;7.30;4.20;;;11.70;99.90;;;;;;5029528;28;20248;-70
2023/03/19 03:11:28;;;;;;;6.13;4.40;;;11.70;99.90;;;;;;5003834;28;21074;-72
2023/03/19 03:13:53;;;;;;;5.03;4.47;;;11.70;99.90;;;;;;5023653;28;20463;-69
2023/03/19 03:16:20;;;;;;;7.27;4.17;;;11.70;99.90;;;;;;5015924;28;20208;-71
2023/03/19 03:18:46;;;;;;;4.47;3.70;;;11.70;99.90;;;;;;5018693;28;20595;-72
2023/03/19 03:21:11;;;;;;;5.20;3.80;;;11.70;99.90;;;;;;4993324;28;20466;-71
2023/03/19 03:23:37;;;;;;;5.10;4.00;;;11.70;99.90;;;;;;5024933;28;20310;-71
2023/03/19 03:26:03;;;;;;;4.20;3.70;;;11.60;99.90;;;;;;5030028;28;20227;-71
2023/03/19 03:28:28;;;;;;;3.90;3.37;;;11.60;99.90;;;;;;5010176;28;20233;-71
2023/03/19 03:30:58;;;;;;;5.03;3.53;;;11.60;99.90;;;;;;5023064;28;20225;-71
2023/03/19 03:33:25;;;;;;;4.00;3.20;;;11.60;99.90;;;;;;5013387;28;20218;-71
2023/03/19 03:35:51;;;;;;;3.90;3.33;;;11.60;99.90;;;;;;5017248;28;20518;-70
2023/03/19 03:38:17;;;;;;;4.40;3.30;;;11.60;99.90;;;;;;5035856;28;20465;-71
2023/03/19 03:40:42;;;;;;;3.13;2.80;;;11.50;99.90;;;;;;5015519;28;20453;-71
2023/03/19 03:43:09;;;;;;;2.87;2.63;;;11.50;99.90;;;;;;5007260;28;20301;-71
2023/03/19 03:45:35;;;;;;;3.50;2.80;;;11.50;99.90;;;;;;5023768;28;20280;-71
2023/03/19 03:48:01;;;;;;;3.97;3.57;;;11.50;99.90;;;;;;5019387;28;20466;-69
2023/03/19 03:50:27;;;;;;;3.53;2.63;;;11.50;99.90;;;;;;5003963;28;20504;-71
2023/03/19 03:52:56;;;;;;;2.67;2.47;;;11.50;99.90;;;;;;5023473;28;20232;-71
2023/03/19 03:55:22;;;;;;;4.20;2.67;;;11.50;99.90;;;;;;5014865;28;20465;-71
2023/03/19 03:57:48;;;;;;;3.30;2.90;;;11.30;99.90;;;;;;5002712;28;20231;-71
2023/03/19 04:00:14;;;;;;;3.17;2.87;;;11.30;99.90;;;;;;5003419;28;20329;-71
2023/03/19 04:02:40;;;;;;;3.80;2.80;;;11.30;99.90;;;;;;5041700;28;20480;-72
2023/03/19 04:05:06;;;;;;;3.73;3.00;;;11.40;99.90;;;;;;5021584;28;20234;-70
2023/03/19 04:07:32;;;;;;;6.23;2.80;;;11.40;99.90;;;;;;5018825;28;20462;-70
2023/03/19 04:09:58;;;;;;;4.90;4.33;;;11.40;99.90;;;;;;5040031;28;20456;-70
2023/03/19 04:12:24;;;;;;;10.90;4.67;;;11.40;99.90;;;;;;5022717;28;20220;-71
2023/03/19 04:14:49;;;;;;;5.67;4.67;;;11.30;99.90;;;;;;5025612;28;20233;-70
2023/03/19 04:17:15;;;;;;;5.60;5.10;;;11.30;99.90;;;;;;5022787;28;20219;-70
2023/03/19 04:19:42;;;;;;;6.17;4.93;;;11.30;99.90;;;;;;5026315;28;20453;-70
2023/03/19 04:22:08;;;;;;;6.77;5.17;;;11.30;99.90;;;;;;5026521;28;20296;-70
2023/03/19 04:24:34;;;;;;;6.73;5.67;;;11.20;99.90;;;;;;5016714;28;20547;-70
2023/03/19 04:27:01;;;;;;;4.57;4.17;;;11.30;99.90;;;;;;5018176;28;20312;-70
2023/03/19 04:29:27;;;;;;;6.03;4.60;;;11.30;99.90;;;;;;5025198;28;20464;-69
2023/03/19 04:31:53;;;;;;;5.70;5.10;;;11.30;99.90;;;;;;5023509;28;20468;-69
2023/03/19 04:34:18;;;;;;;4.73;4.27;;;11.20;99.90;;;;;;5022321;28;21025;-71
2023/03/19 04:36:44;;;;;;;4.87;3.50;;;11.20;99.90;;;;;;5025549;28;20239;-72
2023/03/19 04:39:10;;;;;;;4.37;3.97;;;11.20;99.90;;;;;;5002817;28;20277;-71
2023/03/19 04:41:36;;;;;;;3.53;3.20;;;11.20;99.90;;;;;;5023771;28;20300;-72
2023/03/19 04:44:37;;;;;;;5.13;3.30;;;11.20;99.90;;;;;;4993827;28;20234;-69
2023/03/19 04:47:04;;;;;;;4.60;3.47;;;11.20;99.90;;;;;;5013782;28;20461;-70
2023/03/19 04:49:38;;;;;;;3.40;3.07;;;11.10;99.90;;;;;;5025651;28;20219;-69
2023/03/19 04:52:04;;;;;;;5.00;3.97;;;11.20;99.90;;;;;;5021711;28;20472;-73
2023/03/19 04:54:31;;;;;;;7.80;4.33;;;11.10;99.90;;;;;;5022355;28;20238;-71
2023/03/19 04:56:57;;;;;;;6.23;4.33;;;11.10;99.90;;;;;;5025268;28;20499;-71
2023/03/19 04:59:26;;;;;;;7.03;4.90;;;11.10;99.90;;;;;;5022436;28;20475;-71
2023/03/19 05:01:52;;;;;;;5.73;5.20;;;11.00;99.90;;;;;;5025204;28;20519;-71
2023/03/19 05:04:22;;;;;;;6.87;5.33;;;11.10;99.90;;;;;;5022056;28;20485;-71
2023/03/19 05:06:49;;;;;;;6.40;5.50;;;11.00;99.90;;;;;;5025200;28;20479;-71
2023/03/19 05:09:15;;;;;;;5.20;4.77;;;11.00;99.90;;;;;;5021850;28;20870;-71
2023/03/19 05:11:41;;;;;;;5.60;4.13;;;10.90;99.90;;;;;;5025991;28;20468;-70
2023/03/19 05:14:13;;;;;;;4.53;3.73;;;10.90;99.90;;;;;;5017769;28;20482;-71
2023/03/19 05:17:00;;;;;;;4.40;3.70;;;10.80;99.90;;;;;;5037095;28;20938;-68
2023/03/19 05:19:32;;;;;;;3.97;3.50;;;10.80;99.90;;;;;;5018056;28;20534;-71
2023/03/19 05:21:58;;;;;;;2.97;2.73;;;10.80;99.90;;;;;;5025150;28;20458;-71
2023/03/19 05:24:26;;;;;;;3.40;3.10;;;10.80;99.90;;;;;;5021547;28;20464;-70
2023/03/19 05:26:53;;;;;;;3.50;3.10;;;10.70;99.90;;;;;;5017782;28;20456;-71
2023/03/19 05:29:36;;;;;;;3.63;3.10;;;10.70;99.90;;;;;;5022220;28;20482;-70
2023/03/19 05:32:22;;;;;;;3.20;3.00;;;10.80;99.90;;;;;;5035488;28;20492;-71
2023/03/19 05:34:49;;;;;;;4.67;3.57;;;10.70;99.90;;;;;;5039364;28;21059;-72
2023/03/19 05:37:16;;;;;;;6.87;3.60;;;10.60;99.90;;;;;;5020883;28;20485;-70
2023/03/19 05:39:44;;;;;;;9.57;5.60;;;10.60;99.90;;;;;;5026181;28;20538;-71
2023/03/19 05:42:11;;;;;;;35.17;20.57;;;10.60;99.90;;;;;;5022480;28;20543;-70
2023/03/19 05:44:36;;;;;;;35.10;21.50;;;10.60;99.90;;;;;;5015291;28;20230;-70
2023/03/19 05:47:21;;;;;;;35.73;24.37;;;10.60;99.90;;;;;;5023741;28;20485;-72
2023/03/19 05:49:52;;;;;;;25.77;18.50;;;10.50;99.90;;;;;;5025586;28;20501;-71
2023/03/19 05:52:17;;;;;;;48.10;29.90;;;10.50;99.90;;;;;;5004581;28;21012;-70
2023/03/19 05:54:48;;;;;;;53.53;35.17;;;10.50;99.90;;;;;;5008287;28;20468;-71
2023/03/19 05:57:32;;;;;;;28.80;19.10;;;10.60;99.90;;;;;;5023256;28;20463;-71
2023/03/19 06:00:12;;;;;;;22.03;13.13;;;10.50;99.90;;;;;;5005559;28;21071;-69
2023/03/19 06:02:38;;;;;;;14.90;9.40;;;10.50;99.90;;;;;;5026010;28;20464;-71
2023/03/19 06:05:18;;;;;;;11.97;6.47;;;10.50;99.90;;;;;;5023849;28;20482;-71
2023/03/19 06:07:44;;;;;;;6.90;5.80;;;10.50;99.90;;;;;;5006315;28;20465;-71
2023/03/19 06:10:18;;;;;;;8.67;6.53;;;10.50;99.90;;;;;;5005170;28;20208;-71
2023/03/19 06:12:46;;;;;;;8.73;5.70;;;10.60;99.90;;;;;;5008368;28;20519;-71
2023/03/19 06:15:34;;;;;;;8.17;5.43;;;10.60;99.90;;;;;;5021576;28;20814;-71
2023/03/19 06:18:08;;;;;;;9.00;5.93;;;10.60;99.90;;;;;;4997574;28;20452;-70
2023/03/19 06:20:34;;;;;;;10.60;5.53;;;10.60;99.90;;;;;;5020782;28;20790;-71
2023/03/19 06:23:00;;;;;;;9.50;6.83;;;10.60;99.90;;;;;;5005713;28;20269;-70
2023/03/19 06:25:26;;;;;;;8.10;6.00;;;10.60;99.90;;;;;;5021626;28;20467;-71
2023/03/19 06:27:52;;;;;;;12.07;6.83;;;10.50;99.90;;;;;;5009868;28;20466;-70
2023/03/19 06:30:27;;;;;;;6.83;5.83;;;10.60;99.90;;;;;;5012849;28;20222;-70
2023/03/19 06:32:55;;;;;;;10.17;5.77;;;10.60;99.90;;;;;;5022048;28;20507;-69
2023/03/19 06:35:22;;;;;;;10.13;5.70;;;10.60;99.90;;;;;;5025580;28;20527;-71
2023/03/19 06:37:49;;;;;;;7.70;4.90;;;10.60;99.90;;;;;;5017694;28;20454;-70
2023/03/19 06:40:15;;;;;;;6.10;5.30;;;10.60;99.90;;;;;;5047326;28;20478;-71
2023/03/19 06:42:47;;;;;;;8.93;4.27;;;10.50;99.90;;;;;;5029150;28;20459;-69
2023/03/19 06:45:15;;;;;;;4.87;4.37;;;10.60;99.90;;;;;;5013646;28;20696;-70
2023/03/19 06:47:46;;;;;;;8.87;4.27;;;10.60;99.90;;;;;;5027119;28;20534;-69
2023/03/19 06:50:13;;;;;;;6.13;5.07;;;10.50;99.90;;;;;;5053757;28;20477;-69
2023/03/19 06:52:40;;;;;;;7.40;4.97;;;10.60;99.90;;;;;;5011813;28;20479;-71
2023/03/19 06:55:07;;;;;;;8.37;4.73;;;10.60;99.90;;;;;;5041268;28;20459;-70
2023/03/19 06:57:33;;;;;;;16.10;5.33;;;10.60;99.90;;;;;;5028629;28;20444;-71
2023/03/19 06:59:58;;;;;;;7.10;5.30;;;10.60;99.90;;;;;;5030634;28;20539;-69
2023/03/19 07:02:25;;;;;;;7.03;5.37;;;10.60;99.90;;;;;;5029727;28;20551;-71
2023/03/19 07:04:51;;;;;;;6.53;5.37;;;10.60;99.90;;;;;;5030242;28;20285;-72
2023/03/19 07:07:17;;;;;;;5.97;5.30;;;10.60;99.90;;;;;;5046977;28;20479;-72
2023/03/19 07:09:43;;;;;;;6.47;4.90;;;10.50;99.90;;;;;;5046088;28;20453;-70
2023/03/19 07:12:09;;;;;;;7.70;5.77;;;10.50;99.90;;;;;;5048090;28;20470;-71
2023/03/19 07:14:34;;;;;;;9.63;7.17;;;10.50;99.90;;;;;;5041434;28;20226;-70
2023/03/19 07:17:00;;;;;;;5.60;4.37;;;10.50;99.90;;;;;;5042765;28;20455;-71
2023/03/19 07:19:26;;;;;;;7.97;4.77;;;10.60;99.90;;;;;;5044528;28;20276;-71
2023/03/19 07:21:51;;;;;;;5.83;4.80;;;10.60;99.90;;;;;;5012217;28;20330;-71
2023/03/19 07:24:17;;;;;;;6.00;4.73;;;10.60;99.90;;;;;;5012337;28;20592;-71
2023/03/19 07:26:43;;;;;;;6.83;4.77;;;10.50;99.90;;;;;;5046641;28;20219;-71
2023/03/19 07:29:09;;;;;;;11.43;4.93;;;10.50;99.90;;;;;;5047511;28;20226;-71
2023/03/19 07:31:35;;;;;;;5.50;4.80;;;10.50;99.90;;;;;;5028498;28;20232;-70
2023/03/19 07:34:01;;;;;;;5.80;4.63;;;10.50;99.90;;;;;;5044426;28;20525;-69
2023/03/19 07:36:27;;;;;;;5.60;4.50;;;10.60;99.90;;;;;;5039276;28;20562;-70
2023/03/19 07:38:52;;;;;;;9.77;6.27;;;10.60;99.90;;;;;;5028539;28;20706;-70
2023/03/19 07:41:18;;;;;;;6.90;6.03;;;10.60;99.90;;;;;;5013466;28;20240;-69
2023/03/19 07:43:44;;;;;;;8.87;6.30;;;10.60;99.90;;;;;;5028237;28;20218;-69
2023/03/19 07:46:10;;;;;;;9.90;7.20;;;10.60;99.90;;;;;;5047774;28;20255;-71
2023/03/19 07:48:36;;;;;;;8.57;6.43;;;10.60;99.90;;;;;;5033131;28;20794;-70
2023/03/19 07:51:01;;;;;;;7.27;6.43;;;10.70;99.90;;;;;;5051930;28;20478;-70
2023/03/19 07:53:28;;;;;;;7.63;5.70;;;10.70;99.90;;;;;;5015014;28;20252;-71
2023/03/19 07:55:54;;;;;;;8.47;6.20;;;10.70;99.90;;;;;;5049056;28;20259;-70
2023/03/19 07:58:19;;;;;;;6.47;5.70;;;10.70;99.90;;;;;;5012870;28;20540;-69
2023/03/19 08:00:45;;;;;;;7.03;5.40;;;10.80;99.90;;;;;;5016579;28;20238;-70
2023/03/19 08:03:11;;;;;;;7.07;6.30;;;10.80;99.90;;;;;;5050529;28;20210;-69
2023/03/19 08:05:37;;;;;;;10.43;7.07;;;10.80;99.90;;;;;;5030836;28;20224;-70
2023/03/19 08:08:03;;;;;;;16.30;10.60;;;10.80;99.90;;;;;;5049402;28;20276;-68
2023/03/19 08:10:28;;;;;;;25.50;14.70;;;10.90;99.90;;;;;;5015149;28;20463;-71
2023/03/19 08:12:54;;;;;;;33.93;20.37;;;10.90;99.90;;;;;;5030664;28;20328;-71
2023/03/19 08:15:20;;;;;;;45.43;25.03;;;10.90;99.90;;;;;;5032074;28;20714;-70
2023/03/19 08:17:46;;;;;;;57.50;28.07;;;10.90;99.90;;;;;;5031693;28;20222;-70
2023/03/19 08:20:15;;;;;;;42.13;24.07;;;11.00;99.90;;;;;;5033051;28;20242;-70
2023/03/19 08:22:41;;;;;;;32.50;18.10;;;11.00;99.90;;;;;;5032629;28;20219;-69
2023/03/19 08:25:08;;;;;;;29.07;16.47;;;11.00;99.90;;;;;;5016577;28;20474;-71
2023/03/19 08:27:34;;;;;;;26.20;17.17;;;11.00;99.90;;;;;;5031355;28;20476;-71
2023/03/19 08:30:02;;;;;;;28.00;15.37;;;11.00;99.90;;;;;;5013964;28;21045;-71
2023/03/19 08:32:28;;;;;;;36.83;16.27;;;11.00;99.90;;;;;;5022116;28;20872;-72
2023/03/19 08:34:54;;;;;;;30.37;16.53;;;11.00;99.90;;;;;;5033291;28;20908;-68
2023/03/19 08:37:20;;;;;;;27.57;14.87;;;11.00;99.90;;;;;;5040379;28;20473;-72
2023/03/19 08:39:46;;;;;;;23.13;12.23;;;11.10;99.90;;;;;;5030046;28;20218;-71
2023/03/19 08:42:12;;;;;;;19.00;9.57;;;11.20;99.90;;;;;;5035534;28;20696;-72
2023/03/19 08:44:37;;;;;;;14.80;9.33;;;11.20;99.90;;;;;;5034084;28;20278;-72
2023/03/19 08:47:03;;;;;;;14.80;8.30;;;11.20;99.90;;;;;;5031729;28;20218;-70
2023/03/19 08:49:28;;;;;;;14.47;8.50;;;11.20;99.90;;;;;;5014007;28;20222;-70
2023/03/19 08:51:54;;;;;;;11.23;7.10;;;11.30;99.90;;;;;;5048207;28;20271;-70
2023/03/19 08:54:20;;;;;;;15.53;7.00;;;11.30;99.90;;;;;;5048394;28;20228;-70
2023/03/19 08:56:45;;;;;;;8.60;6.33;;;11.40;99.90;;;;;;5026158;28;20840;-71
2023/03/19 08:59:11;;;;;;;6.80;5.33;;;11.40;99.90;;;;;;5032160;28;20727;-71
2023/03/19 09:01:37;;;;;;;5.53;4.60;;;11.40;99.90;;;;;;5028221;28;20230;-71
2023/03/19 09:04:03;;;;;;;7.20;4.70;;;11.50;99.90;;;;;;5049726;28;20281;-69
2023/03/19 09:06:29;;;;;;;6.80;4.40;;;11.50;99.90;;;;;;5049430;28;20219;-71
2023/03/19 09:08:55;;;;;;;4.70;4.30;;;11.50;99.90;;;;;;5007520;28;20223;-70
2023/03/19 09:11:22;;;;;;;6.93;4.47;;;11.50;99.90;;;;;;5031618;28;21001;-70
2023/03/19 09:13:47;;;;;;;7.27;4.73;;;11.60;99.90;;;;;;5030769;28;20450;-70
2023/03/19 09:16:13;;;;;;;5.77;4.30;;;11.60;99.90;;;;;;5030053;28;20821;-70
2023/03/19 09:18:39;;;;;;;4.90;3.90;;;11.70;99.90;;;;;;5031363;28;20339;-70
2023/03/19 09:21:05;;;;;;;7.00;3.90;;;11.70;99.90;;;;;;5026879;28;20255;-69
2023/03/19 09:23:30;;;;;;;6.03;3.83;;;11.70;99.90;;;;;;5044501;28;20237;-70
2023/03/19 09:25:56;;;;;;;5.07;4.00;;;11.80;99.90;;;;;;5048159;28;20238;-70
2023/03/19 09:28:22;;;;;;;6.30;4.43;;;11.80;99.90;;;;;;5030872;28;20310;-69
2023/03/19 09:30:49;;;;;;;5.37;4.23;;;11.90;99.90;;;;;;5032149;28;20223;-71
2023/03/19 09:33:16;;;;;;;4.90;3.57;;;11.90;99.90;;;;;;5042916;28;20234;-70
2023/03/19 09:35:42;;;;;;;4.77;3.13;;;11.90;99.90;;;;;;5031216;28;20621;-70
2023/03/19 09:38:07;;;;;;;4.30;3.30;;;12.00;99.90;;;;;;5040216;28;20969;-71
2023/03/19 09:40:45;;;;;;;4.87;4.00;;;12.00;99.90;;;;;;5026821;28;20237;-70
2023/03/19 09:43:16;;;;;;;3.30;3.00;;;12.10;99.90;;;;;;5043083;28;20233;-70
2023/03/19 09:45:45;;;;;;;3.70;3.40;;;12.10;99.90;;;;;;5004629;28;20525;-69
2023/03/19 09:48:34;;;;;;;4.93;3.20;;;12.30;99.90;;;;;;5047761;28;20522;-69
2023/03/19 09:51:04;;;;;;;7.13;3.00;;;12.30;99.90;;;;;;5049785;28;20536;-69
2023/03/19 09:53:41;;;;;;;3.17;2.87;;;12.40;99.90;;;;;;5031374;28;20551;-69
2023/03/19 09:56:12;;;;;;;4.00;3.00;;;12.40;99.90;;;;;;5011578;28;20539;-69
2023/03/19 09:58:38;;;;;;;2.70;2.50;;;12.50;99.90;;;;;;5030257;28;20523;-71
2023/03/19 10:01:04;;;;;;;3.80;2.80;;;12.50;99.90;;;;;;5030992;28;20469;-70
2023/03/19 10:03:38;;;;;;;2.90;2.00;;;12.50;99.90;;;;;;5010080;28;21405;-71
2023/03/19 10:06:15;;;;;;;2.60;2.37;;;12.50;99.90;;;;;;5029782;28;20226;-69
2023/03/19 10:09:11;;;;;;;4.60;2.80;;;12.60;99.90;;;;;;5028550;28;20458;-69
2023/03/19 10:11:45;;;;;;;3.00;2.17;;;12.60;99.90;;;;;;5047155;28;20467;-70
2023/03/19 10:15:01;;;;;;;3.53;1.90;;;12.70;99.90;;;;;;5040830;28;20518;-71
2023/03/19 10:17:35;;;;;;;7.23;3.13;;;12.80;99.90;;;;;;5012360;28;20831;-69
2023/03/19 10:20:08;;;;;;;3.00;2.57;;;12.80;99.90;;;;;;5014309;28;20544;-70
2023/03/19 10:22:42;;;;;;;2.40;2.20;;;13.00;99.90;;;;;;5030799;28;20442;-70
2023/03/19 10:25:14;;;;;;;5.03;2.50;;;13.00;99.90;;;;;;5048985;28;20497;-70
2023/03/19 10:27:41;;;;;;;3.20;2.53;;;13.10;99.90;;;;;;5027700;28;20532;-70
2023/03/19 10:30:15;;;;;;;3.13;2.60;;;13.10;99.90;;;;;;5031302;28;20489;-69
2023/03/19 10:32:56;;;;;;;3.77;3.37;;;13.20;99.90;;;;;;5021593;28;20498;-71
2023/03/19 10:35:30;;;;;;;3.43;2.67;;;13.20;99.90;;;;;;5013157;28;20470;-71
2023/03/19 10:37:55;;;;;;;3.23;2.90;;;13.30;99.90;;;;;;5028816;28;20457;-69
2023/03/19 10:40:31;;;;;;;3.30;3.07;;;13.40;99.90;;;;;;5029700;28;20454;-71
2023/03/19 10:43:06;;;;;;;4.03;3.03;;;13.40;99.90;;;;;;5028510;28;20306;-69
2023/03/19 10:45:36;;;;;;;3.03;2.67;;;13.50;99.90;;;;;;5024195;28;20505;-70
2023/03/19 10:48:04;;;;;;;3.93;3.23;;;13.50;99.90;;;;;;5012214;28;20465;-71
2023/03/19 10:50:50;;;;;;;3.60;2.90;;;13.50;99.90;;;;;;5025696;28;20547;-71
2023/03/19 10:53:25;;;;;;;6.40;3.07;;;13.60;99.90;;;;;;5026698;28;20475;-70
2023/03/19 10:56:02;;;;;;;3.50;2.73;;;13.60;99.90;;;;;;5029639;28;20461;-69
2023/03/19 10:58:31;;;;;;;3.30;2.93;;;13.60;99.90;;;;;;5046221;28;20485;-69
2023/03/19 11:01:04;;;;;;;3.67;3.37;;;13.60;99.90;;;;;;5044447;28;20557;-69
2023/03/19 11:03:34;;;;;;;3.50;3.20;;;13.70;99.90;;;;;;5010022;28;20459;-69
2023/03/19 11:06:18;;;;;;;4.67;3.20;;;13.70;99.90;;;;;;5017832;28;20537;-67
2023/03/19 11:09:07;;;;;;;3.80;3.10;;;13.70;99.90;;;;;;5024547;28;20599;-68
2023/03/19 11:11:47;;;;;;;4.00;3.60;;;13.70;99.90;;;;;;5041865;28;20478;-69
2023/03/19 11:14:31;;;;;;;3.70;3.27;;;13.80;99.90;;;;;;5017396;28;20475;-69
2023/03/19 11:17:24;;;;;;;6.10;3.40;;;13.80;99.90;;;;;;5020141;28;20451;-67
2023/03/19 11:19:56;;;;;;;3.97;3.30;;;13.80;99.90;;;;;;5002628;28;21051;-69
2023/03/19 11:22:31;;;;;;;4.70;3.40;;;13.90;99.90;;;;;;5015549;28;20496;-69
2023/03/19 11:25:00;;;;;;;3.50;3.20;;;13.90;99.90;;;;;;5032848;28;21046;-69
2023/03/19 11:27:34;;;;;;;4.57;3.30;;;14.00;99.90;;;;;;5046769;28;20975;-69
2023/03/19 11:30:01;;;;;;;4.43;3.33;;;14.10;99.90;;;;;;5050111;28;20467;-69
2023/03/19 11:32:53;;;;;;;6.27;3.70;;;14.30;99.90;;;;;;5016531;28;20471;-68
2023/03/19 11:35:48;;;;;;;4.73;4.33;;;14.40;99.90;;;;;;5043064;28;20469;-70
2023/03/19 11:38:35;;;;;;;4.53;3.53;;;14.40;99.90;;;;;;4993068;28;20565;-70
2023/03/19 11:41:10;;;;;;;5.07;3.93;;;14.30;99.90;;;;;;5029733;28;20457;-69
2023/03/19 11:43:46;;;;;;;5.13;3.60;;;14.30;99.90;;;;;;5034280;28;20447;-68
2023/03/19 11:46:31;;;;;;;3.57;3.27;;;14.30;99.90;;;;;;5047369;28;20455;-70
2023/03/19 11:49:02;;;;;;;3.60;3.10;;;14.30;99.90;;;;;;5048027;28;20461;-69
2023/03/19 11:51:45;;;;;;;5.00;3.60;;;14.30;99.90;;;;;;5030202;28;20994;-70
2023/03/19 11:54:49;;;;;;;3.80;3.17;;;14.20;99.90;;;;;;5023716;28;20458;-69
2023/03/19 11:57:45;;;;;;;5.67;3.40;;;14.20;99.90;;;;;;4949648;28;20509;-68
2023/03/19 12:00:24;;;;;;;3.40;3.10;;;14.10;99.90;;;;;;5029719;28;20463;-70
2023/03/19 12:03:07;;;;;;;4.93;3.50;;;14.10;99.90;;;;;;5051416;28;20458;-69
2023/03/19 12:06:05;;;;;;;3.23;2.90;;;14.10;99.90;;;;;;5047762;28;20450;-68
2023/03/19 12:08:44;;;;;;;3.10;2.80;;;14.00;99.90;;;;;;5024738;28;20454;-68
2023/03/19 12:11:21;;;;;;;3.57;3.07;;;14.00;99.90;;;;;;5046742;28;20569;-66
2023/03/19 12:13:50;;;;;;;3.50;3.20;;;14.00;99.90;;;;;;5045420;28;20478;-69
2023/03/19 12:16:27;;;;;;;8.70;3.47;;;14.00;99.90;;;;;;5028251;28;20466;-69
2023/03/19 12:19:19;;;;;;;3.90;3.37;;;13.90;99.90;;;;;;5014025;28;20562;-68
2023/03/19 12:21:58;;;;;;;4.13;3.50;;;13.90;99.90;;;;;;5026047;28;20490;-69
2023/03/19 12:24:47;;;;;;;5.17;3.47;;;13.90;99.90;;;;;;5040978;28;20481;-69
2023/03/19 12:27:55;;;;;;;4.87;3.83;;;13.80;99.90;;;;;;5031346;28;20469;-69
2023/03/19 12:30:52;;;;;;;7.03;4.80;;;13.70;99.90;;;;;;5015685;28;20467;-68
2023/03/19 12:33:18;;;;;;;3.87;3.47;;;13.60;99.90;;;;;;5044316;28;20856;-69
2023/03/19 12:35:48;;;;;;;3.43;3.13;;;13.50;99.90;;;;;;5027299;28;20454;-70
2023/03/19 12:38:35;;;;;;;3.10;2.80;;;13.50;99.90;;;;;;5045831;28;20221;-68
2023/03/19 12:41:13;;;;;;;3.13;2.83;;;13.50;99.90;;;;;;5044207;28;20466;-69
2023/03/19 12:44:03;;;;;;;3.60;2.60;;;13.50;99.90;;;;;;5041804;28;20948;-70
2023/03/19 12:46:40;;;;;;;2.03;1.83;;;13.40;99.90;;;;;;5044759;28;20845;-70
2023/03/19 12:49:09;;;;;;;2.77;2.57;;;13.40;99.90;;;;;;5027006;28;20470;-71
2023/03/19 12:51:42;;;;;;;3.03;2.30;;;13.40;99.90;;;;;;5026071;28;20559;-71
2023/03/19 12:54:22;;;;;;;2.47;2.10;;;13.40;99.90;;;;;;5030373;28;20472;-71
2023/03/19 12:57:03;;;;;;;2.30;2.20;;;13.40;99.90;;;;;;5025618;28;20453;-70
2023/03/19 12:59:49;;;;;;;5.40;3.23;;;13.40;99.90;;;;;;5032052;28;20534;-71
2023/03/19 13:02:32;;;;;;;3.07;2.20;;;13.30;99.90;;;;;;5033184;28;20476;-71
2023/03/19 13:05:25;;;;;;;2.43;2.20;;;13.30;99.90;;;;;;5031039;28;20553;-71